Ana Sayfa
METAR-TAF:

METAR-TAF

Havaalanları :

Goldsboro, Kuzey Carolina, Amerika Birleşik Devletleri

Enlem: 35-27-38N, Boylam: 077-57-54W, yükseklik: 40 m

Güncel hava durumu gözlemi

Rapor saat 20:15 UTC de 24 dakika önce yapıldı.
Sakin rüzgar
Sıcaklık 13°C
Nem 62%
Basınç 1007 hPa
Görüş mesafesi: 16.1 km
8000 ft yükseklikte çok bulutlu

METAR: KGWW 312015Z AUTO 00000KT 10SM OVC080 13/06 A2974 RMK AO2 T01300057

Saat: 16:39 (20:39 UTC)


TAF: eksik

4.000'den fazla havaalanı için hava durumu gözlemleri ve tahminleri (METAR ve TAF raporları).

Kullanılabilir istasyonlar harita üzerinde sarı ve kırmızı noktalarla gösterilir.

İstasyonun adını görmek için fareyi noktanın üzerinde gezdirin.

Sonrasında hava gözlem ve tahminlerini görmek için tıklayın.

Haritayı değiştirmek için: yaklaştırmak için siyah artı işaretli yeşil düğmeye ve uzaklaştırmak için de eksi işaretli düğmeye hızla tıklayın; bitişik haritalar için yeşil okları kullanın.


METAR-TAF: